^^
Station Historical Data
Daily Summary for January 22, 2019 Units:  English    Metric   Both
« Previous Day
Next Day »
Daily Weekly Monthly Yearly Custom
  High: Low: Average:
Temperature: 19.7 °F 8.4 °F 14.1 °F
Dew Point: 17.5 °F 5.6 °F 11.2 °F
Humidity: 92% 84% 88%
Wind Speed: 19.0mph 0.0mph 8.6mph
Wind Gust: 24.0mph - -
Wind- - West
Pressure: 30.22 in 29.98 in -
Precipitation: 0.00 in    
Historical Graphs
 
 
Tabular Data for January 22, 2019
Time Temperature Dew Point Pressure Wind Wind Speed Wind Gust Humidity Rainfall Rate (Hourly) solar Conditions
00:04 8.4 °F 5.6 °F 30.08 in NNW 7.0 mph 9.0 mph 88% 0.00 in 0.00 W/m2
00:09 8.5 °F 5.7 °F 30.07 in North 7.0 mph 9.0 mph 88% 0.00 in 0.00 W/m2
00:14 8.5 °F 5.7 °F 30.07 in North 7.0 mph 10.0 mph 88% 0.00 in 0.00 W/m2
00:19 8.6 °F 5.8 °F 30.07 in NNW 8.0 mph 10.0 mph 88% 0.00 in 0.00 W/m2
00:24 8.6 °F 5.8 °F 30.07 in NNW 8.0 mph 11.0 mph 88% 0.00 in 0.00 W/m2
00:29 8.6 °F 5.8 °F 30.07 in NNW 5.0 mph 12.0 mph 88% 0.00 in 0.00 W/m2
00:34 8.6 °F 5.8 °F 30.08 in NNW 7.0 mph 12.0 mph 88% 0.00 in 0.00 W/m2
00:39 8.7 °F 5.9 °F 30.08 in NNW 7.0 mph 11.0 mph 88% 0.00 in 0.00 W/m2
00:44 8.7 °F 5.9 °F 30.08 in NNW 4.0 mph 11.0 mph 88% 0.00 in 0.00 W/m2
00:49 8.7 °F 5.9 °F 30.09 in NNW 7.0 mph 10.0 mph 88% 0.00 in 0.00 W/m2
00:54 8.7 °F 5.9 °F 30.09 in NW 9.0 mph 11.0 mph 88% 0.00 in 0.00 W/m2
00:59 8.6 °F 5.8 °F 30.09 in NNW 11.0 mph 13.0 mph 88% 0.00 in 0.00 W/m2
01:04 8.6 °F 5.8 °F 30.09 in NNW 9.0 mph 13.0 mph 88% 0.00 in 0.00 W/m2
01:09 8.5 °F 5.7 °F 30.09 in NNW 7.0 mph 12.0 mph 88% 0.00 in 0.00 W/m2
01:14 8.5 °F 5.7 °F 30.09 in NNW 6.0 mph 12.0 mph 88% 0.00 in 0.00 W/m2
01:19 8.5 °F 5.7 °F 30.09 in NNW 8.0 mph 11.0 mph 88% 0.00 in 0.00 W/m2
01:24 8.5 °F 5.7 °F 30.09 in NW 9.0 mph 13.0 mph 88% 0.00 in 0.00 W/m2
01:29 8.5 °F 5.7 °F 30.09 in NW 8.0 mph 13.0 mph 88% 0.00 in 0.00 W/m2
01:34 8.5 °F 5.7 °F 30.10 in NW 7.0 mph 12.0 mph 88% 0.00 in 0.00 W/m2
01:39 8.5 °F 5.7 °F 30.10 in NW 8.0 mph 13.0 mph 88% 0.00 in 0.00 W/m2
01:44 8.5 °F 5.7 °F 30.10 in NNW 9.0 mph 15.0 mph 88% 0.00 in 0.00 W/m2
01:49 8.6 °F 5.8 °F 30.10 in NNW 12.0 mph 15.0 mph 88% 0.00 in 0.00 W/m2
01:54 8.6 °F 5.8 °F 30.10 in NW 11.0 mph 15.0 mph 88% 0.00 in 0.00 W/m2
01:59 8.7 °F 5.9 °F 30.10 in NW 7.0 mph 16.0 mph 88% 0.00 in 0.00 W/m2
02:04 8.7 °F 5.9 °F 30.09 in NW 8.0 mph 16.0 mph 88% 0.00 in 0.00 W/m2
02:09 8.7 °F 5.9 °F 30.09 in NNW 12.0 mph 16.0 mph 88% 0.00 in 0.00 W/m2
02:14 8.7 °F 5.9 °F 30.09 in NNW 12.0 mph 16.0 mph 88% 0.00 in 0.00 W/m2
02:19 8.7 °F 5.9 °F 30.09 in NNW 13.0 mph 16.0 mph 88% 0.00 in 0.00 W/m2
02:24 8.7 °F 5.9 °F 30.10 in NW 7.0 mph 16.0 mph 88% 0.00 in 0.00 W/m2
02:29 8.8 °F 6.0 °F 30.10 in NW 9.0 mph 15.0 mph 88% 0.00 in 0.00 W/m2
02:34 8.8 °F 6.0 °F 30.10 in NW 10.0 mph 15.0 mph 88% 0.00 in 0.00 W/m2
02:39 8.9 °F 6.1 °F 30.10 in NW 12.0 mph 15.0 mph 88% 0.00 in 0.00 W/m2
02:44 8.9 °F 6.1 °F 30.10 in NW 9.0 mph 16.0 mph 88% 0.00 in 0.00 W/m2
02:49 9.0 °F 6.4 °F 30.11 in NW 13.0 mph 16.0 mph 89% 0.00 in 0.00 W/m2
02:54 9.1 °F 6.5 °F 30.11 in NNW 16.0 mph 19.0 mph 89% 0.00 in 0.00 W/m2
02:59 9.1 °F 6.5 °F 30.11 in NNW 14.0 mph 19.0 mph 89% 0.00 in 0.00 W/m2
03:04 9.1 °F 6.5 °F 30.11 in NW 8.0 mph 19.0 mph 89% 0.00 in 0.00 W/m2
03:09 9.2 °F 6.6 °F 30.11 in NW 10.0 mph 17.0 mph 89% 0.00 in 0.00 W/m2
03:14 9.2 °F 6.6 °F 30.11 in NW 7.0 mph 16.0 mph 89% 0.00 in 0.00 W/m2
03:19 9.2 °F 6.9 °F 30.11 in NW 14.0 mph 14.0 mph 90% 0.00 in 0.00 W/m2
03:24 9.3 °F 7.0 °F 30.11 in NW 11.0 mph 14.0 mph 90% 0.00 in 0.00 W/m2
03:29 9.4 °F 7.1 °F 30.11 in NW 9.0 mph 13.0 mph 90% 0.00 in 0.00 W/m2
03:34 9.4 °F 7.1 °F 30.11 in NW 7.0 mph 11.0 mph 90% 0.00 in 0.00 W/m2
03:39 9.4 °F 7.1 °F 30.11 in NW 6.0 mph 10.0 mph 90% 0.00 in 0.00 W/m2
03:44 9.5 °F 7.2 °F 30.11 in NW 10.0 mph 12.0 mph 90% 0.00 in 0.00 W/m2
03:49 9.5 °F 7.2 °F 30.12 in NW 11.0 mph 14.0 mph 90% 0.00 in 0.00 W/m2
03:54 9.4 °F 6.8 °F 30.11 in NW 10.0 mph 15.0 mph 89% 0.00 in 0.00 W/m2
03:59 9.3 °F 6.7 °F 30.12 in NW 16.0 mph 16.0 mph 89% 0.00 in 0.00 W/m2
04:04 9.2 °F 6.6 °F 30.12 in NW 11.0 mph 16.0 mph 89% 0.00 in 0.00 W/m2
04:09 9.2 °F 6.6 °F 30.12 in NW 16.0 mph 16.0 mph 89% 0.00 in 0.00 W/m2
04:14 9.1 °F 6.5 °F 30.12 in NW 9.0 mph 17.0 mph 89% 0.00 in 0.00 W/m2
04:19 9.1 °F 6.5 °F 30.12 in NW 12.0 mph 17.0 mph 89% 0.00 in 0.00 W/m2
04:24 9.1 °F 6.5 °F 30.12 in NW 9.0 mph 15.0 mph 89% 0.00 in 0.00 W/m2
04:29 9.2 °F 6.6 °F 30.12 in NW 10.0 mph 13.0 mph 89% 0.00 in 0.00 W/m2
04:34 9.3 °F 7.0 °F 30.12 in NW 7.0 mph 13.0 mph 90% 0.00 in 0.00 W/m2
04:39 9.4 °F 7.1 °F 30.12 in NW 9.0 mph 13.0 mph 90% 0.00 in 0.00 W/m2
04:44 9.5 °F 7.2 °F 30.13 in NW 8.0 mph 13.0 mph 90% 0.00 in 0.00 W/m2
04:49 9.5 °F 7.2 °F 30.13 in WNW 9.0 mph 11.0 mph 90% 0.00 in 0.00 W/m2
04:54 9.7 °F 7.4 °F 30.13 in WNW 10.0 mph 12.0 mph 90% 0.00 in 0.00 W/m2
04:59 10.0 °F 7.7 °F 30.13 in NW 13.0 mph 14.0 mph 90% 0.00 in 0.00 W/m2
05:04 10.3 °F 8.0 °F 30.13 in NW 14.0 mph 16.0 mph 90% 0.00 in 0.00 W/m2
05:09 10.5 °F 8.1 °F 30.13 in NW 13.0 mph 17.0 mph 90% 0.00 in 0.00 W/m2
05:14 10.7 °F 8.3 °F 30.13 in WNW 8.0 mph 17.0 mph 90% 0.00 in 0.00 W/m2
05:19 10.9 °F 8.8 °F 30.13 in NW 10.0 mph 16.0 mph 91% 0.00 in 0.00 W/m2
05:24 11.1 °F 9.0 °F 30.12 in NW 8.0 mph 16.0 mph 91% 0.00 in 0.00 W/m2
05:29 11.4 °F 9.0 °F 30.12 in NW 9.0 mph 16.0 mph 90% 0.00 in 0.00 W/m2
05:34 11.5 °F 9.4 °F 30.13 in NW 13.0 mph 16.0 mph 91% 0.00 in 0.00 W/m2
05:39 11.7 °F 9.6 °F 30.13 in NW 11.0 mph 15.0 mph 91% 0.00 in 0.00 W/m2
05:44 11.8 °F 9.7 °F 30.13 in NW 11.0 mph 16.0 mph 91% 0.00 in 0.00 W/m2
05:49 12.1 °F 10.0 °F 30.14 in NW 13.0 mph 16.0 mph 91% 0.00 in 0.00 W/m2
05:54 12.2 °F 10.1 °F 30.14 in NW 12.0 mph 15.0 mph 91% 0.00 in 0.00 W/m2
05:59 12.3 °F 10.2 °F 30.14 in NW 13.0 mph 15.0 mph 91% 0.00 in 0.00 W/m2
06:04 12.4 °F 10.3 °F 30.14 in NW 11.0 mph 14.0 mph 91% 0.00 in 0.00 W/m2
06:09 12.5 °F 10.4 °F 30.14 in NW 8.0 mph 14.0 mph 91% 0.00 in 0.00 W/m2
06:14 12.8 °F 10.7 °F 30.14 in NW 11.0 mph 14.0 mph 91% 0.00 in 0.00 W/m2
06:19 13.2 °F 11.1 °F 30.14 in NW 8.0 mph 14.0 mph 91% 0.00 in 0.00 W/m2
06:24 13.7 °F 11.6 °F 30.14 in NW 9.0 mph 17.0 mph 91% 0.00 in 0.00 W/m2
06:29 14.0 °F 11.9 °F 30.14 in NW 10.0 mph 17.0 mph 91% 0.00 in 0.00 W/m2
06:34 14.0 °F 11.9 °F 30.14 in NW 15.0 mph 16.0 mph 91% 0.00 in 0.00 W/m2
06:39 14.1 °F 12.0 °F 30.15 in NNW 11.0 mph 16.0 mph 91% 0.00 in 0.00 W/m2
06:44 14.2 °F 12.1 °F 30.15 in NW 8.0 mph 15.0 mph 91% 0.00 in 0.00 W/m2
06:49 14.2 °F 12.1 °F 30.15 in NNW 9.0 mph 16.0 mph 91% 0.00 in 0.00 W/m2
06:54 14.2 °F 12.1 °F 30.15 in NW 14.0 mph 19.0 mph 91% 0.00 in 0.00 W/m2
06:59 14.2 °F 12.1 °F 30.16 in NW 11.0 mph 19.0 mph 91% 0.00 in 0.00 W/m2
07:04 14.2 °F 12.1 °F 30.16 in NW 10.0 mph 18.0 mph 91% 0.00 in 0.00 W/m2
07:09 14.2 °F 12.1 °F 30.16 in NW 11.0 mph 18.0 mph 91% 0.00 in 0.00 W/m2
07:14 14.2 °F 12.1 °F 30.16 in WNW 10.0 mph 18.0 mph 91% 0.00 in 0.00 W/m2
07:19 14.3 °F 12.2 °F 30.15 in NW 13.0 mph 20.0 mph 91% 0.00 in 0.00 W/m2
07:24 14.3 °F 12.2 °F 30.16 in NNW 11.0 mph 20.0 mph 91% 0.00 in 0.00 W/m2
07:29 14.4 °F 12.3 °F 30.16 in NW 12.0 mph 21.0 mph 91% 0.00 in 0.00 W/m2
07:34 14.5 °F 12.4 °F 30.16 in NNW 13.0 mph 21.0 mph 91% 0.00 in 0.00 W/m2
07:39 14.6 °F 12.2 °F 30.17 in NW 8.0 mph 19.0 mph 90% 0.00 in 0.00 W/m2
07:44 14.7 °F 12.3 °F 30.17 in NW 17.0 mph 19.0 mph 90% 0.00 in 0.00 W/m2
07:49 14.8 °F 12.4 °F 30.17 in NW 17.0 mph 24.0 mph 90% 0.00 in 0.00 W/m2
07:54 14.8 °F 12.4 °F 30.17 in NNW 16.0 mph 24.0 mph 90% 0.00 in 0.00 W/m2
07:59 14.7 °F 12.0 °F 30.17 in NW 18.0 mph 23.0 mph 89% 0.00 in 0.00 W/m2
08:04 14.4 °F 11.8 °F 30.17 in NW 16.0 mph 23.0 mph 89% 0.00 in 0.00 W/m2
08:09 14.0 °F 11.4 °F 30.17 in NW 14.0 mph 21.0 mph 89% 0.00 in 0.00 W/m2
08:14 13.7 °F 10.8 °F 30.18 in WNW 15.0 mph 24.0 mph 88% 0.00 in 0.00 W/m2
08:19 13.4 °F 10.5 °F 30.18 in NW 10.0 mph 24.0 mph 88% 0.00 in 0.00 W/m2
08:24 13.0 °F 10.1 °F 30.18 in NW 12.0 mph 21.0 mph 88% 0.00 in 5.00 W/m2
08:29 12.7 °F 9.8 °F 30.19 in NW 15.0 mph 23.0 mph 88% 0.00 in 7.00 W/m2
08:34 12.5 °F 9.6 °F 30.19 in NW 17.0 mph 23.0 mph 88% 0.00 in 11.00 W/m2
08:39 12.4 °F 9.3 °F 30.19 in NW 12.0 mph 23.0 mph 87% 0.00 in 21.00 W/m2
08:44 12.3 °F 9.2 °F 30.20 in NW 12.0 mph 23.0 mph 87% 0.00 in 40.00 W/m2
08:49 12.2 °F 9.1 °F 30.20 in NW 16.0 mph 23.0 mph 87% 0.00 in 39.00 W/m2
08:54 12.1 °F 9.0 °F 30.20 in NW 16.0 mph 23.0 mph 87% 0.00 in 56.00 W/m2
08:59 12.1 °F 9.0 °F 30.21 in NW 10.0 mph 21.0 mph 87% 0.00 in 62.00 W/m2
09:04 11.9 °F 8.8 °F 30.20 in NW 11.0 mph 19.0 mph 87% 0.00 in 74.00 W/m2
09:09 11.9 °F 8.8 °F 30.21 in NNW 11.0 mph 19.0 mph 87% 0.00 in 86.00 W/m2
09:14 11.8 °F 8.7 °F 30.21 in NW 19.0 mph 20.0 mph 87% 0.00 in 84.00 W/m2
09:19 11.7 °F 8.6 °F 30.21 in NW 16.0 mph 24.0 mph 87% 0.00 in 51.00 W/m2
09:24 11.5 °F 8.4 °F 30.21 in NW 14.0 mph 24.0 mph 87% 0.00 in 81.00 W/m2
09:29 11.3 °F 8.2 °F 30.21 in NNW 12.0 mph 22.0 mph 87% 0.00 in 70.00 W/m2
09:34 11.3 °F 8.2 °F 30.21 in NW 13.0 mph 22.0 mph 87% 0.00 in 100.00 W/m2
09:39 11.0 °F 7.9 °F 30.21 in NNW 11.0 mph 20.0 mph 87% 0.00 in 116.00 W/m2
09:44 10.8 °F 7.7 °F 30.21 in NW 10.0 mph 17.0 mph 87% 0.00 in 134.00 W/m2
09:49 11.0 °F 7.9 °F 30.20 in NW 12.0 mph 17.0 mph 87% 0.00 in 149.00 W/m2
09:54 11.1 °F 8.0 °F 30.20 in NW 9.0 mph 16.0 mph 87% 0.00 in 162.00 W/m2
09:59 11.1 °F 8.0 °F 30.20 in NW 15.0 mph 18.0 mph 87% 0.00 in 174.00 W/m2
10:04 11.1 °F 8.0 °F 30.21 in WNW 13.0 mph 18.0 mph 87% 0.00 in 188.00 W/m2
10:09 11.2 °F 8.1 °F 30.21 in NNW 11.0 mph 17.0 mph 87% 0.00 in 204.00 W/m2
10:14 11.3 °F 8.2 °F 30.21 in NW 13.0 mph 17.0 mph 87% 0.00 in 218.00 W/m2
10:19 11.3 °F 8.2 °F 30.21 in NW 12.0 mph 19.0 mph 87% 0.00 in 230.00 W/m2
10:24 11.3 °F 8.2 °F 30.21 in NW 11.0 mph 19.0 mph 87% 0.00 in 246.00 W/m2
10:29 11.3 °F 7.9 °F 30.22 in NW 9.0 mph 16.0 mph 86% 0.00 in 255.00 W/m2
10:34 11.4 °F 8.3 °F 30.22 in NNW 12.0 mph 17.0 mph 87% 0.00 in 267.00 W/m2
10:39 11.5 °F 8.1 °F 30.22 in NW 11.0 mph 17.0 mph 86% 0.00 in 279.00 W/m2
10:44 11.7 °F 8.3 °F 30.22 in NW 8.0 mph 14.0 mph 86% 0.00 in 290.00 W/m2
10:49 11.8 °F 8.4 °F 30.22 in NW 13.0 mph 14.0 mph 86% 0.00 in 299.00 W/m2
10:54 12.0 °F 8.6 °F 30.22 in WNW 9.0 mph 14.0 mph 86% 0.00 in 308.00 W/m2
10:59 12.3 °F 8.9 °F 30.22 in NW 9.0 mph 14.0 mph 86% 0.00 in 315.00 W/m2
11:04 12.4 °F 9.0 °F 30.22 in NW 10.0 mph 11.0 mph 86% 0.00 in 323.00 W/m2
11:09 12.5 °F 9.1 °F 30.22 in NW 10.0 mph 13.0 mph 86% 0.00 in 332.00 W/m2
11:14 12.7 °F 9.0 °F 30.22 in NW 7.0 mph 15.0 mph 85% 0.00 in 339.00 W/m2
11:19 12.8 °F 9.1 °F 30.22 in WNW 9.0 mph 15.0 mph 85% 0.00 in 348.00 W/m2
11:24 12.9 °F 9.2 °F 30.22 in NW 9.0 mph 17.0 mph 85% 0.00 in 355.00 W/m2
11:29 13.0 °F 9.3 °F 30.22 in NW 12.0 mph 18.0 mph 85% 0.00 in 362.00 W/m2
11:34 13.1 °F 9.4 °F 30.21 in NW 12.0 mph 18.0 mph 85% 0.00 in 366.00 W/m2
11:39 13.3 °F 9.6 °F 30.21 in NW 10.0 mph 16.0 mph 85% 0.00 in 371.00 W/m2
11:44 13.4 °F 9.7 °F 30.21 in WNW 12.0 mph 16.0 mph 85% 0.00 in 376.00 W/m2
11:49 13.6 °F 9.9 °F 30.21 in NW 8.0 mph 17.0 mph 85% 0.00 in 385.00 W/m2
11:54 14.0 °F 10.3 °F 30.22 in NW 10.0 mph 17.0 mph 85% 0.00 in 387.00 W/m2
11:59 14.5 °F 10.8 °F 30.22 in NW 16.0 mph 19.0 mph 85% 0.00 in 374.00 W/m2
12:04 14.8 °F 10.8 °F 30.22 in NW 15.0 mph 22.0 mph 84% 0.00 in 401.00 W/m2
12:09 15.0 °F 11.0 °F 30.21 in NW 18.0 mph 22.0 mph 84% 0.00 in 471.00 W/m2
12:14 15.1 °F 11.1 °F 30.21 in WNW 13.0 mph 21.0 mph 84% 0.00 in 452.00 W/m2
12:19 15.3 °F 11.3 °F 30.20 in NW 13.0 mph 21.0 mph 84% 0.00 in 487.00 W/m2
12:24 15.3 °F 11.3 °F 30.20 in NW 15.0 mph 19.0 mph 84% 0.00 in 362.00 W/m2
12:29 15.3 °F 11.3 °F 30.20 in NNW 15.0 mph 19.0 mph 84% 0.00 in 369.00 W/m2
12:34 15.3 °F 11.3 °F 30.20 in WNW 18.0 mph 18.0 mph 84% 0.00 in 413.00 W/m2
12:39 15.6 °F 11.6 °F 30.19 in NW 10.0 mph 18.0 mph 84% 0.00 in 352.00 W/m2
12:44 15.7 °F 11.7 °F 30.19 in NW 15.0 mph 18.0 mph 84% 0.00 in 422.00 W/m2
12:49 15.8 °F 11.8 °F 30.19 in NW 11.0 mph 18.0 mph 84% 0.00 in 422.00 W/m2
12:54 16.1 °F 12.1 °F 30.18 in NW 10.0 mph 18.0 mph 84% 0.00 in 420.00 W/m2
12:59 16.3 °F 12.3 °F 30.18 in NW 9.0 mph 16.0 mph 84% 0.00 in 418.00 W/m2
13:04 16.4 °F 12.4 °F 30.18 in NW 9.0 mph 17.0 mph 84% 0.00 in 418.00 W/m2
13:09 16.5 °F 12.5 °F 30.18 in NW 15.0 mph 19.0 mph 84% 0.00 in 418.00 W/m2
13:14 16.7 °F 12.7 °F 30.18 in NW 17.0 mph 19.0 mph 84% 0.00 in 413.00 W/m2
13:19 16.9 °F 12.9 °F 30.18 in NW 11.0 mph 17.0 mph 84% 0.00 in 415.00 W/m2
13:24 17.1 °F 13.4 °F 30.18 in NW 13.0 mph 17.0 mph 85% 0.00 in 415.00 W/m2
13:29 17.3 °F 13.3 °F 30.17 in WNW 19.0 mph 19.0 mph 84% 0.00 in 415.00 W/m2
13:34 17.4 °F 13.4 °F 30.17 in NW 15.0 mph 20.0 mph 84% 0.00 in 408.00 W/m2
13:39 17.6 °F 13.9 °F 30.17 in NW 15.0 mph 20.0 mph 85% 0.00 in 404.00 W/m2
13:44 17.6 °F 13.9 °F 30.17 in NW 12.0 mph 18.0 mph 85% 0.00 in 403.00 W/m2
13:49 17.7 °F 14.0 °F 30.17 in NW 11.0 mph 18.0 mph 85% 0.00 in 396.00 W/m2
13:54 17.8 °F 14.1 °F 30.17 in WNW 8.0 mph 17.0 mph 85% 0.00 in 392.00 W/m2
13:59 17.9 °F 14.2 °F 30.17 in WNW 12.0 mph 17.0 mph 85% 0.00 in 388.00 W/m2
14:04 18.0 °F 14.3 °F 30.17 in WNW 8.0 mph 14.0 mph 85% 0.00 in 383.00 W/m2
14:09 18.0 °F 14.3 °F 30.17 in WNW 10.0 mph 15.0 mph 85% 0.00 in 374.00 W/m2
14:14 18.1 °F 14.4 °F 30.17 in WNW 7.0 mph 16.0 mph 85% 0.00 in 373.00 W/m2
14:19 18.2 °F 14.4 °F 30.17 in WNW 6.0 mph 16.0 mph 85% 0.00 in 366.00 W/m2
14:24 18.4 °F 14.6 °F 30.16 in WNW 9.0 mph 13.0 mph 85% 0.00 in 362.00 W/m2
14:29 18.5 °F 14.7 °F 30.16 in WNW 9.0 mph 13.0 mph 85% 0.00 in 355.00 W/m2
14:34 18.6 °F 14.8 °F 30.16 in WNW 8.0 mph 12.0 mph 85% 0.00 in 339.00 W/m2
14:39 18.8 °F 15.0 °F 30.16 in WNW 6.0 mph 11.0 mph 85% 0.00 in 330.00 W/m2
14:44 18.9 °F 15.1 °F 30.16 in WNW 6.0 mph 9.0 mph 85% 0.00 in 323.00 W/m2
14:49 19.0 °F 15.2 °F 30.15 in WNW 7.0 mph 9.0 mph 85% 0.00 in 316.00 W/m2
14:54 19.1 °F 15.3 °F 30.15 in West 8.0 mph 10.0 mph 85% 0.00 in 306.00 W/m2
14:59 19.2 °F 15.4 °F 30.15 in WNW 10.0 mph 10.0 mph 85% 0.00 in 301.00 W/m2
15:04 19.3 °F 15.5 °F 30.16 in WNW 8.0 mph 11.0 mph 85% 0.00 in 292.00 W/m2
15:09 19.3 °F 15.5 °F 30.15 in WNW 7.0 mph 11.0 mph 85% 0.00 in 283.00 W/m2
15:14 19.3 °F 15.5 °F 30.15 in WNW 6.0 mph 11.0 mph 85% 0.00 in 269.00 W/m2
15:19 19.3 °F 15.5 °F 30.14 in WNW 7.0 mph 10.0 mph 85% 0.00 in 260.00 W/m2
15:24 19.4 °F 15.6 °F 30.14 in NW 7.0 mph 11.0 mph 85% 0.00 in 246.00 W/m2
15:29 19.5 °F 15.7 °F 30.14 in WNW 7.0 mph 11.0 mph 85% 0.00 in 236.00 W/m2
15:34 19.5 °F 15.5 °F 30.14 in WNW 9.0 mph 10.0 mph 84% 0.00 in 223.00 W/m2
15:39 19.6 °F 15.8 °F 30.14 in WNW 9.0 mph 10.0 mph 85% 0.00 in 213.00 W/m2
15:44 19.6 °F 15.6 °F 30.14 in NW 8.0 mph 10.0 mph 84% 0.00 in 199.00 W/m2
15:49 19.7 °F 15.9 °F 30.13 in WNW 8.0 mph 11.0 mph 85% 0.00 in 183.00 W/m2
15:54 19.7 °F 15.6 °F 30.13 in WNW 7.0 mph 11.0 mph 84% 0.00 in 171.00 W/m2
15:59 19.7 °F 15.6 °F 30.13 in WNW 9.0 mph 11.0 mph 84% 0.00 in 156.00 W/m2
16:04 19.6 °F 15.6 °F 30.13 in WNW 6.0 mph 11.0 mph 84% 0.00 in 142.00 W/m2
16:09 19.5 °F 15.5 °F 30.13 in WNW 7.0 mph 11.0 mph 84% 0.00 in 130.00 W/m2
16:14 19.5 °F 15.5 °F 30.13 in WNW 6.0 mph 9.0 mph 84% 0.00 in 118.00 W/m2
16:19 19.4 °F 15.4 °F 30.13 in WNW 7.0 mph 9.0 mph 84% 0.00 in 104.00 W/m2
16:24 19.4 °F 15.4 °F 30.13 in WNW 5.0 mph 9.0 mph 84% 0.00 in 100.00 W/m2
16:29 19.5 °F 15.5 °F 30.13 in WNW 6.0 mph 9.0 mph 84% 0.00 in 83.00 W/m2
16:34 19.4 °F 17.5 °F 30.12 in WNW 5.0 mph 8.0 mph 92% 0.00 in 69.00 W/m2
16:39 19.2 °F 15.2 °F 30.13 in WNW 3.0 mph 8.0 mph 84% 0.00 in 67.00 W/m2
16:44 19.3 °F 15.5 °F 30.12 in WNW 2.0 mph 6.0 mph 85% 0.00 in 47.00 W/m2
16:49 19.4 °F 15.6 °F 30.12 in WNW 3.0 mph 5.0 mph 85% 0.00 in 37.00 W/m2
16:54 19.5 °F 15.7 °F 30.12 in WNW 2.0 mph 4.0 mph 85% 0.00 in 28.00 W/m2
16:59 19.4 °F 15.4 °F 30.12 in WNW 2.0 mph 3.0 mph 84% 0.00 in 23.00 W/m2
17:04 19.0 °F 15.0 °F 30.12 in WNW 3.0 mph 4.0 mph 84% 0.00 in 19.00 W/m2
17:09 18.3 °F 14.3 °F 30.12 in WNW 4.0 mph 5.0 mph 84% 0.00 in 18.00 W/m2
17:14 17.9 °F 14.2 °F 30.12 in WNW 3.0 mph 5.0 mph 85% 0.00 in 14.00 W/m2
17:19 17.7 °F 14.2 °F 30.12 in WNW 1.0 mph 5.0 mph 86% 0.00 in 12.00 W/m2
17:24 17.3 °F 13.6 °F 30.12 in WNW 2.0 mph 4.0 mph 85% 0.00 in 9.00 W/m2
17:29 16.9 °F 13.2 °F 30.12 in WNW 3.0 mph 4.0 mph 85% 0.00 in 7.00 W/m2
17:34 16.4 °F 12.9 °F 30.12 in WNW 4.0 mph 6.0 mph 86% 0.00 in 5.00 W/m2
17:39 16.1 °F 12.9 °F 30.13 in WNW 4.0 mph 6.0 mph 87% 0.00 in 0.00 W/m2
17:44 15.9 °F 12.7 °F 30.13 in WNW 5.0 mph 6.0 mph 87% 0.00 in 0.00 W/m2
17:49 16.0 °F 13.1 °F 30.12 in WNW 3.0 mph 6.0 mph 88% 0.00 in 0.00 W/m2
17:54 16.0 °F 13.1 °F 30.13 in WNW 2.0 mph 5.0 mph 88% 0.00 in 0.00 W/m2
17:59 15.7 °F 12.8 °F 30.13 in Calm   4.0 mph 88% 0.00 in 0.00 W/m2
18:04 15.5 °F 12.6 °F 30.12 in Calm   3.0 mph 88% 0.00 in 0.00 W/m2
18:09 15.5 °F 12.8 °F 30.12 in Calm     89% 0.00 in 0.00 W/m2
18:14 15.7 °F 13.0 °F 30.12 in WNW 1.0 mph 2.0 mph 89% 0.00 in 0.00 W/m2
18:19 15.7 °F 13.0 °F 30.12 in Calm   2.0 mph 89% 0.00 in 0.00 W/m2
18:24 15.8 °F 13.1 °F 30.12 in Calm   2.0 mph 89% 0.00 in 0.00 W/m2
18:29 16.1 °F 13.7 °F 30.12 in Calm     90% 0.00 in 0.00 W/m2
18:34 16.3 °F 13.9 °F 30.11 in WNW 2.0 mph 2.0 mph 90% 0.00 in 0.00 W/m2
18:39 16.2 °F 13.5 °F 30.11 in SSE 4.0 mph 5.0 mph 89% 0.00 in 0.00 W/m2
18:44 16.2 °F 13.8 °F 30.11 in SSE 5.0 mph 5.0 mph 90% 0.00 in 0.00 W/m2
18:49 16.1 °F 13.4 °F 30.11 in SSE 4.0 mph 6.0 mph 89% 0.00 in 0.00 W/m2
18:54 16.1 °F 13.7 °F 30.11 in SSE 6.0 mph 6.0 mph 90% 0.00 in 0.00 W/m2
18:59 16.3 °F 13.9 °F 30.10 in SSE 3.0 mph 6.0 mph 90% 0.00 in 0.00 W/m2
19:04 16.5 °F 14.1 °F 30.10 in SSE 4.0 mph 5.0 mph 90% 0.00 in 0.00 W/m2
19:09 16.7 °F 14.3 °F 30.10 in SSE 3.0 mph 4.0 mph 90% 0.00 in 0.00 W/m2
19:14 16.9 °F 14.5 °F 30.10 in SSE 2.0 mph 4.0 mph 90% 0.00 in 0.00 W/m2
19:19 17.1 °F 14.7 °F 30.10 in SSE 3.0 mph 4.0 mph 90% 0.00 in 0.00 W/m2
19:24 17.3 °F 14.9 °F 30.09 in SSE 4.0 mph 4.0 mph 90% 0.00 in 0.00 W/m2
19:29 17.5 °F 15.1 °F 30.09 in SSE 3.0 mph 4.0 mph 90% 0.00 in 0.00 W/m2
19:34 17.7 °F 15.3 °F 30.09 in South 3.0 mph 5.0 mph 90% 0.00 in 0.00 W/m2
19:39 18.0 °F 15.6 °F 30.09 in SSE 4.0 mph 5.0 mph 90% 0.00 in 0.00 W/m2
19:44 18.4 °F 16.2 °F 30.09 in SSE 3.0 mph 5.0 mph 91% 0.00 in 0.00 W/m2
19:49 18.6 °F 16.2 °F 30.08 in SSE 4.0 mph 5.0 mph 90% 0.00 in 0.00 W/m2
19:54 18.8 °F 16.4 °F 30.08 in SE 4.0 mph 5.0 mph 90% 0.00 in 0.00 W/m2
19:59 18.7 °F 16.3 °F 30.08 in SE 4.0 mph 5.0 mph 90% 0.00 in 0.00 W/m2
20:04 18.6 °F 16.2 °F 30.07 in SE 5.0 mph 5.0 mph 90% 0.00 in 0.00 W/m2
20:09 18.6 °F 16.2 °F 30.07 in SE 4.0 mph 5.0 mph 90% 0.00 in 0.00 W/m2
20:14 18.5 °F 15.8 °F 30.07 in SE 4.0 mph 5.0 mph 89% 0.00 in 0.00 W/m2
20:19 18.4 °F 15.7 °F 30.06 in ESE 4.0 mph 5.0 mph 89% 0.00 in 0.00 W/m2
20:24 18.1 °F 15.4 °F 30.06 in SE 5.0 mph 7.0 mph 89% 0.00 in 0.00 W/m2
20:29 18.0 °F 15.3 °F 30.06 in SE 4.0 mph 7.0 mph 89% 0.00 in 0.00 W/m2
20:34 17.7 °F 15.0 °F 30.06 in SE 5.0 mph 5.0 mph 89% 0.00 in 0.00 W/m2
20:39 17.5 °F 14.8 °F 30.05 in SE 5.0 mph 6.0 mph 89% 0.00 in 0.00 W/m2
20:44 17.6 °F 15.2 °F 30.05 in SE 4.0 mph 6.0 mph 90% 0.00 in 0.00 W/m2
20:49 17.6 °F 15.2 °F 30.05 in SE 5.0 mph 6.0 mph 90% 0.00 in 0.00 W/m2
20:54 17.5 °F 15.1 °F 30.04 in SE 4.0 mph 6.0 mph 90% 0.00 in 0.00 W/m2
20:59 17.5 °F 15.1 °F 30.04 in SE 5.0 mph 6.0 mph 90% 0.00 in 0.00 W/m2
21:04 17.2 °F 14.8 °F 30.04 in SE 5.0 mph 5.0 mph 90% 0.00 in 0.00 W/m2
21:09 17.0 °F 14.6 °F 30.04 in SE 4.0 mph 6.0 mph 90% 0.00 in 0.00 W/m2
21:14 16.6 °F 13.9 °F 30.04 in SE 5.0 mph 6.0 mph 89% 0.00 in 0.00 W/m2
21:19 16.4 °F 14.0 °F 30.04 in SE 5.0 mph 6.0 mph 90% 0.00 in 0.00 W/m2
21:24 16.5 °F 14.1 °F 30.04 in SE 6.0 mph 6.0 mph 90% 0.00 in 0.00 W/m2
21:29 16.3 °F 13.9 °F 30.04 in SE 5.0 mph 6.0 mph 90% 0.00 in 0.00 W/m2
21:34 16.1 °F 13.7 °F 30.03 in SE 5.0 mph 6.0 mph 90% 0.00 in 0.00 W/m2
21:39 15.9 °F 13.5 °F 30.03 in SE 6.0 mph 6.0 mph 90% 0.00 in 0.00 W/m2
21:44 15.7 °F 13.3 °F 30.03 in SE 6.0 mph 8.0 mph 90% 0.00 in 0.00 W/m2
21:49 15.2 °F 12.8 °F 30.03 in SE 6.0 mph 8.0 mph 90% 0.00 in 0.00 W/m2
21:54 14.9 °F 12.5 °F 30.03 in SE 6.0 mph 7.0 mph 90% 0.00 in 0.00 W/m2
21:59 14.4 °F 12.0 °F 30.03 in SE 7.0 mph 7.0 mph 90% 0.00 in 0.00 W/m2
22:04 14.1 °F 11.7 °F 30.03 in SE 6.0 mph 7.0 mph 90% 0.00 in 0.00 W/m2
22:09 13.9 °F 11.5 °F 30.03 in SE 5.0 mph 7.0 mph 90% 0.00 in 0.00 W/m2
22:14 13.9 °F 11.5 °F 30.03 in SE 6.0 mph 6.0 mph 90% 0.00 in 0.00 W/m2
22:19 13.7 °F 11.3 °F 30.02 in South 7.0 mph 7.0 mph 90% 0.00 in 0.00 W/m2
22:24 14.0 °F 11.9 °F 30.02 in South 6.0 mph 9.0 mph 91% 0.00 in 0.00 W/m2
22:29 14.6 °F 12.7 °F 30.02 in South 7.0 mph 9.0 mph 92% 0.00 in 0.00 W/m2
22:34 15.1 °F 13.2 °F 30.02 in South 7.0 mph 8.0 mph 92% 0.00 in 0.00 W/m2
22:39 15.5 °F 13.6 °F 30.02 in South 5.0 mph 8.0 mph 92% 0.00 in 0.00 W/m2
22:44 15.5 °F 13.3 °F 30.02 in SSE 5.0 mph 8.0 mph 91% 0.00 in 0.00 W/m2
22:49 15.7 °F 13.8 °F 30.01 in South 6.0 mph 8.0 mph 92% 0.00 in 0.00 W/m2
22:54 16.0 °F 14.1 °F 30.01 in SSE 5.0 mph 8.0 mph 92% 0.00 in 0.00 W/m2
22:59 16.1 °F 13.9 °F 30.01 in SSE 4.0 mph 7.0 mph 91% 0.00 in 0.00 W/m2
23:04 16.2 °F 14.0 °F 30.01 in SSE 5.0 mph 7.0 mph 91% 0.00 in 0.00 W/m2
23:09 16.3 °F 14.4 °F 30.01 in SSE 5.0 mph 7.0 mph 92% 0.00 in 0.00 W/m2
23:14 16.2 °F 14.0 °F 30.00 in SE 5.0 mph 7.0 mph 91% 0.00 in 0.00 W/m2
23:19 15.6 °F 13.4 °F 30.00 in SE 5.0 mph 8.0 mph 91% 0.00 in 0.00 W/m2
23:24 15.0 °F 12.8 °F 30.00 in SE 7.0 mph 8.0 mph 91% 0.00 in 0.00 W/m2
23:29 14.5 °F 12.4 °F 30.00 in SE 6.0 mph 8.0 mph 91% 0.00 in 0.00 W/m2
23:34 14.3 °F 12.2 °F 30.00 in SE 7.0 mph 9.0 mph 91% 0.00 in 0.00 W/m2
23:39 14.1 °F 12.0 °F 30.00 in SE 8.0 mph 9.0 mph 91% 0.00 in 0.00 W/m2
23:44 13.7 °F 11.6 °F 29.99 in SE 6.0 mph 9.0 mph 91% 0.00 in 0.00 W/m2
23:49 13.4 °F 11.3 °F 29.99 in SE 6.0 mph 9.0 mph 91% 0.00 in 0.00 W/m2
23:54 13.2 °F 11.1 °F 29.98 in SE 6.0 mph 9.0 mph 91% 0.00 in 0.00 W/m2
23:59 13.1 °F 11.0 °F 29.98 in ESE 4.0 mph 8.0 mph 91% 0.00 in 0.00 W/m2
Bismarck, North Dakota, USA
Compliments of Weather Underground - 4 mb